createdAt,value
2022-12-27T00:00:45.469Z,4.50
2022-12-27T00:01:47.147Z,4.40
2022-12-27T00:02:48.949Z,4.40
2022-12-27T00:03:50.622Z,4.40
2022-12-27T00:04:52.829Z,4.40
2022-12-27T00:05:54.459Z,4.40
2022-12-27T00:06:56.287Z,4.30
2022-12-27T00:07:57.895Z,4.40
2022-12-27T00:09:00.780Z,4.30
2022-12-27T00:10:02.467Z,4.40
2022-12-27T00:11:06.262Z,4.30
2022-12-27T00:12:08.317Z,4.30
2022-12-27T00:13:09.922Z,4.30
2022-12-27T00:14:12.148Z,4.30
2022-12-27T00:15:13.722Z,4.40
2022-12-27T00:16:17.388Z,4.30
2022-12-27T00:17:19.032Z,4.30
2022-12-27T00:18:20.606Z,4.30
2022-12-27T00:19:22.435Z,4.40
2022-12-27T00:20:24.042Z,4.40
2022-12-27T00:21:26.225Z,4.40
2022-12-27T00:22:27.789Z,4.40
2022-12-27T00:23:36.018Z,4.40
2022-12-27T00:24:37.670Z,4.40
2022-12-27T00:25:39.237Z,4.40
2022-12-27T00:26:41.707Z,4.40
2022-12-27T00:27:43.488Z,4.40
2022-12-27T00:28:46.088Z,4.40
2022-12-27T00:29:47.674Z,4.50
2022-12-27T00:30:54.899Z,4.50
2022-12-27T00:31:56.502Z,4.50
2022-12-27T00:32:58.158Z,4.50
2022-12-27T00:34:01.921Z,4.50
2022-12-27T00:35:03.864Z,4.50
2022-12-27T00:36:07.680Z,4.50
2022-12-27T00:37:09.310Z,4.60
2022-12-27T00:38:10.871Z,4.60
2022-12-27T00:39:12.576Z,4.50
2022-12-27T00:40:14.204Z,4.50
2022-12-27T00:41:16.588Z,4.50
2022-12-27T00:42:18.298Z,4.50
2022-12-27T00:43:20.100Z,4.50
2022-12-27T00:44:21.670Z,4.50
2022-12-27T00:45:23.322Z,4.50
2022-12-27T00:46:24.912Z,4.50
2022-12-27T00:47:27.129Z,4.50
2022-12-27T00:48:29.015Z,4.50
2022-12-27T00:49:30.638Z,4.50
2022-12-27T00:50:32.282Z,4.40
2022-12-27T00:51:33.909Z,4.50
2022-12-27T00:52:35.498Z,4.40
2022-12-27T00:53:37.322Z,4.40
2022-12-27T00:54:38.982Z,4.40
2022-12-27T00:55:43.749Z,4.40
2022-12-27T00:56:45.318Z,4.40
2022-12-27T00:57:47.169Z,4.30
2022-12-27T00:58:53.186Z,4.30
2022-12-27T00:59:54.885Z,4.20
2022-12-27T01:01:05.039Z,4.20
2022-12-27T01:02:06.760Z,4.20
2022-12-27T01:03:08.362Z,4.20
2022-12-27T01:04:13.576Z,4.20
2022-12-27T01:05:15.179Z,4.20
2022-12-27T01:06:19.704Z,4.10
2022-12-27T01:07:21.278Z,4.10
2022-12-27T01:08:23.032Z,4.10
2022-12-27T01:09:24.630Z,4.00
2022-12-27T01:10:26.229Z,4.10
2022-12-27T01:11:28.815Z,4.00
2022-12-27T01:12:30.458Z,4.00
2022-12-27T01:13:32.833Z,4.00
2022-12-27T01:14:34.417Z,4.00
2022-12-27T01:15:36.060Z,4.00
2022-12-27T01:16:38.453Z,4.00
2022-12-27T01:17:40.093Z,3.90
2022-12-27T01:18:42.160Z,3.90
2022-12-27T01:19:43.743Z,3.90
2022-12-27T01:20:45.514Z,3.90
2022-12-27T01:21:47.150Z,3.90
2022-12-27T01:22:48.709Z,3.90
2022-12-27T01:23:50.545Z,3.80
2022-12-27T01:24:52.120Z,3.80
2022-12-27T01:26:04.905Z,3.80
2022-12-27T01:27:06.515Z,3.80
2022-12-27T01:28:09.088Z,3.80
2022-12-27T01:29:12.669Z,3.80
2022-12-27T01:30:14.295Z,3.70
2022-12-27T01:31:18.925Z,3.70
2022-12-27T01:32:20.595Z,3.70
2022-12-27T01:33:22.390Z,3.70
2022-12-27T01:34:24.030Z,3.70
2022-12-27T01:35:25.832Z,3.70
2022-12-27T01:36:29.758Z,3.70
2022-12-27T01:37:31.356Z,3.70
2022-12-27T01:38:32.923Z,3.70
2022-12-27T01:39:34.531Z,3.70
2022-12-27T01:40:37.201Z,3.70
2022-12-27T01:42:01.418Z,3.70
2022-12-27T01:43:03.701Z,3.70
2022-12-27T01:44:39.679Z,3.70
2022-12-27T01:45:41.430Z,3.70
2022-12-27T01:46:43.052Z,3.70
2022-12-27T01:47:50.460Z,3.70
2022-12-27T01:48:52.437Z,3.70
2022-12-27T01:50:22.165Z,3.70
2022-12-27T01:51:23.912Z,3.80
2022-12-27T01:52:34.887Z,3.80
2022-12-27T01:53:43.790Z,3.70
2022-12-27T01:54:46.288Z,3.70
2022-12-27T01:55:59.416Z,3.70
2022-12-27T01:57:01.579Z,3.70
2022-12-27T01:58:21.613Z,3.70
2022-12-27T01:59:23.411Z,3.70
2022-12-27T02:00:25.085Z,3.70
2022-12-27T02:01:30.717Z,3.70
2022-12-27T02:02:32.836Z,3.70
2022-12-27T02:03:39.625Z,3.70
2022-12-27T02:04:41.390Z,3.70
2022-12-27T02:05:43.166Z,3.80
2022-12-27T02:06:46.873Z,3.70
2022-12-27T02:08:10.272Z,3.80
2022-12-27T02:09:19.508Z,3.70
2022-12-27T02:10:21.265Z,3.70
2022-12-27T02:11:48.305Z,3.70
2022-12-27T02:12:50.055Z,3.70
2022-12-27T02:13:51.689Z,3.70
2022-12-27T02:14:53.312Z,3.70
2022-12-27T02:15:55.030Z,3.80
2022-12-27T02:16:59.385Z,3.70
2022-12-27T02:18:01.079Z,3.80
2022-12-27T02:19:03.763Z,3.70
2022-12-27T02:20:14.037Z,3.70
2022-12-27T02:21:21.357Z,3.70
2022-12-27T02:23:14.989Z,3.70
2022-12-27T02:24:48.828Z,3.70
2022-12-27T02:26:25.907Z,3.70
2022-12-27T02:28:07.149Z,3.60
2022-12-27T02:29:21.099Z,3.60
2022-12-27T02:30:22.702Z,3.60
2022-12-27T02:31:45.999Z,3.60
2022-12-27T02:33:02.287Z,3.60
2022-12-27T02:34:10.291Z,3.60
2022-12-27T02:35:26.901Z,3.60
2022-12-27T02:36:33.379Z,3.60
2022-12-27T02:37:39.919Z,3.60
2022-12-27T02:38:47.393Z,3.60
2022-12-27T02:39:49.946Z,3.60
2022-12-27T02:41:11.856Z,3.60
2022-12-27T02:42:34.614Z,3.60
2022-12-27T02:43:54.934Z,3.50
2022-12-27T02:45:15.234Z,3.60
2022-12-27T02:46:46.269Z,3.60
2022-12-27T02:48:07.518Z,3.60
2022-12-27T02:49:48.423Z,3.60
2022-12-27T02:51:53.377Z,3.50
2022-12-27T02:53:35.804Z,3.50
2022-12-27T02:55:17.661Z,3.50
2022-12-27T02:56:46.546Z,3.50
2022-12-27T02:58:29.211Z,3.50
2022-12-27T03:00:14.343Z,3.50
2022-12-27T03:02:09.601Z,3.50
2022-12-27T03:03:42.614Z,3.50
2022-12-27T03:04:58.924Z,3.40
2022-12-27T03:06:40.603Z,3.40
2022-12-27T03:08:10.166Z,3.40
2022-12-27T03:10:12.368Z,3.40
2022-12-27T03:11:32.932Z,3.40
2022-12-27T03:13:01.019Z,3.40
2022-12-27T03:14:41.683Z,3.40
2022-12-27T03:15:59.430Z,3.40
2022-12-27T03:17:08.193Z,3.50
2022-12-27T03:18:16.811Z,3.50
2022-12-27T03:19:48.404Z,3.50
2022-12-27T03:21:09.207Z,3.60
2022-12-27T03:22:30.476Z,3.60
2022-12-27T03:23:51.828Z,3.50
2022-12-27T03:25:14.983Z,3.60
2022-12-27T03:26:18.859Z,3.50
2022-12-27T03:27:28.519Z,3.50
2022-12-27T03:28:50.980Z,3.50
2022-12-27T03:30:14.068Z,3.50
2022-12-27T03:31:45.287Z,3.50
2022-12-27T03:33:13.836Z,3.50
2022-12-27T03:34:32.171Z,3.50
2022-12-27T03:35:41.602Z,3.50
2022-12-27T03:37:01.829Z,3.50
2022-12-27T03:38:05.311Z,3.50
2022-12-27T03:39:09.679Z,3.50
2022-12-27T03:40:16.120Z,3.50
2022-12-27T03:41:45.633Z,3.50
2022-12-27T03:43:15.289Z,3.60
2022-12-27T03:44:26.277Z,3.60
2022-12-27T03:45:53.508Z,3.60
2022-12-27T03:47:00.674Z,3.60
2022-12-27T03:48:06.324Z,3.60
2022-12-27T03:49:24.889Z,3.50
2022-12-27T03:50:35.265Z,3.60
2022-12-27T03:52:08.178Z,3.60
2022-12-27T03:53:35.956Z,3.60
2022-12-27T03:54:43.389Z,3.60
2022-12-27T03:55:45.092Z,3.60
2022-12-27T03:56:46.740Z,3.60
2022-12-27T03:57:48.402Z,3.60
2022-12-27T03:58:51.495Z,3.60
2022-12-27T03:59:53.480Z,3.70
2022-12-27T04:00:55.090Z,3.70
2022-12-27T04:01:57.258Z,3.80
2022-12-27T04:02:59.038Z,3.80
2022-12-27T04:04:00.763Z,3.80
2022-12-27T04:05:02.429Z,3.80
2022-12-27T04:06:04.074Z,3.80
2022-12-27T04:07:06.139Z,3.80
2022-12-27T04:08:26.310Z,3.90
2022-12-27T04:09:46.583Z,3.80
2022-12-27T04:11:06.703Z,3.90
2022-12-27T04:12:27.116Z,3.90
2022-12-27T04:13:47.486Z,4.00
2022-12-27T04:15:07.867Z,4.00
2022-12-27T04:16:28.478Z,4.10
2022-12-27T04:17:48.884Z,4.10
2022-12-27T04:19:09.170Z,4.20
2022-12-27T04:20:29.539Z,4.20
2022-12-27T04:21:49.967Z,4.30
2022-12-27T04:23:10.404Z,4.30
2022-12-27T04:24:30.652Z,4.40
2022-12-27T04:25:50.957Z,4.40
2022-12-27T04:27:11.419Z,4.40
2022-12-27T04:28:31.848Z,4.40
2022-12-27T04:29:52.372Z,4.40
2022-12-27T04:31:12.736Z,4.30
2022-12-27T04:32:33.047Z,4.30
2022-12-27T04:33:53.511Z,4.30
2022-12-27T04:34:55.123Z,4.20
2022-12-27T04:35:59.157Z,4.20
2022-12-27T04:37:04.463Z,4.20
2022-12-27T04:38:06.085Z,4.20
2022-12-27T04:39:07.877Z,4.20
2022-12-27T04:40:28.294Z,4.20
2022-12-27T04:41:48.787Z,4.10
2022-12-27T04:43:09.162Z,4.10
2022-12-27T04:44:29.532Z,4.10
2022-12-27T04:45:49.925Z,4.10
2022-12-27T04:47:10.327Z,4.10
2022-12-27T04:48:34.957Z,4.10
2022-12-27T04:49:55.489Z,4.00
2022-12-27T04:51:15.811Z,4.10
2022-12-27T04:52:38.359Z,4.10
2022-12-27T04:53:58.770Z,4.00
2022-12-27T04:55:12.590Z,4.00
2022-12-27T04:56:14.165Z,4.00
2022-12-27T04:57:15.755Z,3.90
2022-12-27T04:58:17.295Z,3.90
2022-12-27T04:59:37.411Z,3.90
2022-12-27T05:00:57.800Z,3.90
2022-12-27T05:02:05.678Z,3.90
2022-12-27T05:03:10.847Z,3.90
2022-12-27T05:04:12.632Z,3.90
2022-12-27T05:05:14.526Z,3.90
2022-12-27T05:06:17.147Z,3.90
2022-12-27T05:07:37.555Z,3.90
2022-12-27T05:08:57.860Z,3.90
2022-12-27T05:10:19.914Z,3.90
2022-12-27T05:11:40.424Z,4.00
2022-12-27T05:13:00.808Z,3.90
2022-12-27T05:14:07.326Z,3.90
2022-12-27T05:15:09.341Z,3.90
2022-12-27T05:16:11.233Z,3.90
2022-12-27T05:17:13.131Z,3.90
2022-12-27T05:18:14.744Z,3.90
2022-12-27T05:19:16.358Z,3.90
2022-12-27T05:20:18.108Z,4.00
2022-12-27T05:21:20.170Z,4.00
2022-12-27T05:22:40.305Z,4.00
2022-12-27T05:24:05.178Z,4.00
2022-12-27T05:25:25.710Z,4.00
2022-12-27T05:26:30.273Z,4.00
2022-12-27T05:27:31.866Z,4.00
2022-12-27T05:28:33.487Z,3.90
2022-12-27T05:29:35.974Z,4.00
2022-12-27T05:30:40.334Z,4.00
2022-12-27T05:31:42.061Z,3.90
2022-12-27T05:32:43.667Z,3.90
2022-12-27T05:33:45.291Z,3.90
2022-12-27T05:34:46.912Z,3.80
2022-12-27T05:35:48.477Z,3.80
2022-12-27T05:36:50.075Z,3.80
2022-12-27T05:37:55.168Z,3.70
2022-12-27T05:38:57.970Z,3.70
2022-12-27T05:39:59.525Z,3.70
2022-12-27T05:41:02.043Z,3.70
2022-12-27T05:42:03.882Z,3.70
2022-12-27T05:43:05.510Z,3.70
2022-12-27T05:44:07.841Z,3.70
2022-12-27T05:45:09.681Z,3.70
2022-12-27T05:46:14.662Z,3.70
2022-12-27T05:47:16.320Z,3.70
2022-12-27T05:48:17.945Z,3.70
2022-12-27T05:49:19.520Z,3.70
2022-12-27T05:50:21.288Z,3.70
2022-12-27T05:51:22.886Z,3.80
2022-12-27T05:52:24.596Z,3.80
2022-12-27T05:53:26.169Z,3.80
2022-12-27T05:54:27.730Z,3.80
2022-12-27T05:55:29.332Z,3.80
2022-12-27T05:56:30.937Z,3.80
2022-12-27T05:57:32.862Z,3.80
2022-12-27T05:58:34.694Z,3.80
2022-12-27T05:59:36.294Z,3.80
2022-12-27T06:00:37.923Z,3.80
2022-12-27T06:01:39.604Z,3.80
2022-12-27T06:02:42.311Z,3.80
2022-12-27T06:03:44.831Z,3.80
2022-12-27T06:04:46.441Z,3.80
2022-12-27T06:05:48.299Z,3.80
2022-12-27T06:06:49.875Z,3.80
2022-12-27T06:07:51.471Z,3.80
2022-12-27T06:08:53.098Z,3.80
2022-12-27T06:09:54.664Z,3.80
2022-12-27T06:11:22.302Z,3.70
2022-12-27T06:12:23.901Z,3.80
2022-12-27T06:13:25.501Z,3.80
2022-12-27T06:14:27.172Z,3.80
2022-12-27T06:15:28.932Z,3.80
2022-12-27T06:16:30.537Z,3.80
2022-12-27T06:17:32.218Z,3.80
2022-12-27T06:18:35.662Z,3.80
2022-12-27T06:19:37.212Z,3.80
2022-12-27T06:20:38.773Z,3.90
2022-12-27T06:21:40.396Z,3.90
2022-12-27T06:22:41.987Z,3.90
2022-12-27T06:23:45.250Z,3.90
2022-12-27T06:24:46.871Z,3.90
2022-12-27T06:25:48.432Z,3.90
2022-12-27T06:26:50.034Z,3.90
2022-12-27T06:27:51.613Z,4.00
2022-12-27T06:28:55.444Z,4.00
2022-12-27T06:29:57.039Z,4.00
2022-12-27T06:30:59.927Z,4.00
2022-12-27T06:32:01.773Z,4.00
2022-12-27T06:33:03.460Z,4.00
2022-12-27T06:34:05.320Z,4.00
2022-12-27T06:35:07.253Z,4.10
2022-12-27T06:36:11.160Z,4.00
2022-12-27T06:37:12.788Z,4.00
2022-12-27T06:38:14.374Z,4.10
2022-12-27T06:39:19.392Z,4.10
2022-12-27T06:40:21.890Z,4.10
2022-12-27T06:41:23.454Z,4.10
2022-12-27T06:42:25.029Z,4.10
2022-12-27T06:43:26.588Z,4.10
2022-12-27T06:44:28.357Z,4.10
2022-12-27T06:45:29.948Z,4.10
2022-12-27T06:46:31.535Z,4.10
2022-12-27T06:47:33.392Z,4.10
2022-12-27T06:48:36.429Z,4.20
2022-12-27T06:49:38.057Z,4.10
2022-12-27T06:50:39.633Z,4.20
2022-12-27T06:51:41.808Z,4.20
2022-12-27T06:52:43.396Z,4.20
2022-12-27T06:53:45.081Z,4.20
2022-12-27T06:54:46.895Z,4.20
2022-12-27T06:55:48.543Z,4.10
2022-12-27T06:56:50.122Z,4.20
2022-12-27T06:57:51.727Z,4.20
2022-12-27T06:58:54.428Z,4.20
2022-12-27T06:59:56.072Z,4.20
2022-12-27T07:00:57.796Z,4.30
2022-12-27T07:01:59.688Z,4.30
2022-12-27T07:03:04.262Z,4.30
2022-12-27T07:04:05.961Z,4.30
2022-12-27T07:05:08.087Z,4.30
2022-12-27T07:06:11.608Z,4.30
2022-12-27T07:07:15.850Z,4.30
2022-12-27T07:08:17.727Z,4.30
2022-12-27T07:09:19.366Z,4.30
2022-12-27T07:10:20.956Z,4.40
2022-12-27T07:11:23.334Z,4.30
2022-12-27T07:12:24.924Z,4.30
2022-12-27T07:13:26.510Z,4.30
2022-12-27T07:14:28.234Z,4.30
2022-12-27T07:15:29.929Z,4.30
2022-12-27T07:16:31.573Z,4.30
2022-12-27T07:17:35.701Z,4.30
2022-12-27T07:18:38.619Z,4.30
2022-12-27T07:19:40.214Z,4.30
2022-12-27T07:20:41.838Z,4.30
2022-12-27T07:21:43.441Z,4.30
2022-12-27T07:22:45.010Z,4.30
2022-12-27T07:23:46.924Z,4.30
2022-12-27T07:24:48.500Z,4.30
2022-12-27T07:25:50.243Z,4.30
2022-12-27T07:26:51.858Z,4.30
2022-12-27T07:27:53.970Z,4.30
2022-12-27T07:28:57.353Z,4.40
2022-12-27T07:29:58.952Z,4.40
2022-12-27T07:31:05.645Z,4.40
2022-12-27T07:32:07.283Z,4.40
2022-12-27T07:33:09.062Z,4.40
2022-12-27T07:34:11.224Z,4.40
2022-12-27T07:35:12.825Z,4.40
2022-12-27T07:36:17.905Z,4.40
2022-12-27T07:37:20.392Z,4.50
2022-12-27T07:38:22.015Z,4.40
2022-12-27T07:39:23.595Z,4.50
2022-12-27T07:40:25.829Z,4.50
2022-12-27T07:41:27.611Z,4.50
2022-12-27T07:42:29.331Z,4.50
2022-12-27T07:43:33.209Z,4.50
2022-12-27T07:44:34.795Z,4.50
2022-12-27T07:45:36.408Z,4.50
2022-12-27T07:46:38.025Z,4.50
2022-12-27T07:47:39.627Z,4.50
2022-12-27T07:48:41.716Z,4.50
2022-12-27T07:49:43.300Z,4.50
2022-12-27T07:50:53.840Z,4.50
2022-12-27T07:51:55.643Z,4.50
2022-12-27T07:52:57.227Z,4.60
2022-12-27T07:53:58.852Z,4.60
2022-12-27T07:55:00.470Z,4.60
2022-12-27T07:56:13.307Z,4.70
2022-12-27T07:57:15.002Z,4.60
2022-12-27T07:58:18.074Z,4.60
2022-12-27T07:59:19.747Z,4.60
2022-12-27T08:00:21.452Z,4.60
2022-12-27T08:01:24.950Z,4.60
2022-12-27T08:02:26.727Z,4.60
2022-12-27T08:03:28.468Z,4.70
2022-12-27T08:04:30.952Z,4.70
2022-12-27T08:05:32.555Z,4.60
2022-12-27T08:06:35.029Z,4.60
2022-12-27T08:07:38.451Z,4.70
2022-12-27T08:08:43.419Z,4.60
2022-12-27T08:09:46.382Z,4.60
2022-12-27T08:10:48.122Z,4.60
2022-12-27T08:11:49.759Z,4.60
2022-12-27T08:12:51.351Z,4.60
2022-12-27T08:13:53.346Z,4.60
2022-12-27T08:14:54.943Z,4.60
2022-12-27T08:15:56.539Z,4.60
2022-12-27T08:17:03.728Z,4.60
2022-12-27T08:18:05.516Z,4.60
2022-12-27T08:19:08.700Z,4.60
2022-12-27T08:20:14.221Z,4.60
2022-12-27T08:21:15.882Z,4.60
2022-12-27T08:22:17.510Z,4.60
2022-12-27T08:23:19.360Z,4.60
2022-12-27T08:24:20.982Z,4.60
2022-12-27T08:25:22.701Z,4.70
2022-12-27T08:26:24.346Z,4.60
2022-12-27T08:27:25.985Z,4.70
2022-12-27T08:28:31.605Z,4.70
2022-12-27T08:29:33.176Z,4.70
2022-12-27T08:30:35.254Z,4.70
2022-12-27T08:31:36.850Z,4.70
2022-12-27T08:32:38.417Z,4.70
2022-12-27T08:33:41.908Z,4.70
2022-12-27T08:34:43.521Z,4.70
2022-12-27T08:35:54.380Z,4.70
2022-12-27T08:36:56.891Z,4.70
2022-12-27T08:38:01.545Z,4.70
2022-12-27T08:39:03.352Z,4.70
2022-12-27T08:40:05.447Z,4.70
2022-12-27T08:41:07.062Z,4.70
2022-12-27T08:42:14.738Z,4.80
2022-12-27T08:43:16.319Z,4.80
2022-12-27T08:44:17.899Z,4.80
2022-12-27T08:45:19.579Z,4.80
2022-12-27T08:46:21.408Z,4.80
2022-12-27T08:47:23.447Z,4.80
2022-12-27T08:48:25.065Z,4.80
2022-12-27T08:49:26.903Z,4.80
2022-12-27T08:50:29.306Z,4.80
2022-12-27T08:51:38.747Z,4.80
2022-12-27T08:52:42.856Z,4.80
2022-12-27T08:53:44.838Z,4.80
2022-12-27T08:54:46.669Z,4.80
2022-12-27T08:55:48.247Z,4.80
2022-12-27T08:56:49.855Z,4.90
2022-12-27T08:57:55.612Z,4.90
2022-12-27T08:58:57.170Z,4.90
2022-12-27T08:59:58.786Z,4.90
2022-12-27T09:01:10.295Z,4.90
2022-12-27T09:02:12.845Z,4.90
2022-12-27T09:03:17.878Z,4.90
2022-12-27T09:04:19.537Z,4.90
2022-12-27T09:05:24.345Z,5.00
2022-12-27T09:06:27.656Z,4.90
2022-12-27T09:07:29.242Z,4.90
2022-12-27T09:08:30.918Z,4.80
2022-12-27T09:09:32.543Z,4.90
2022-12-27T09:10:34.172Z,4.90
2022-12-27T09:11:35.814Z,4.90
2022-12-27T09:12:37.445Z,4.90
2022-12-27T09:13:39.828Z,4.90
2022-12-27T09:14:41.388Z,4.90
2022-12-27T09:15:44.204Z,4.90
2022-12-27T09:16:45.919Z,4.90
2022-12-27T09:17:47.544Z,4.90
2022-12-27T09:18:51.752Z,4.90
2022-12-27T09:19:53.371Z,4.90
2022-12-27T09:20:54.965Z,4.90
2022-12-27T09:21:56.596Z,4.80
2022-12-27T09:22:59.141Z,4.90
2022-12-27T09:24:01.039Z,4.90
2022-12-27T09:25:02.780Z,4.90
2022-12-27T09:26:15.522Z,4.90
2022-12-27T09:27:17.175Z,4.90
2022-12-27T09:28:18.755Z,4.90
2022-12-27T09:29:20.319Z,4.90
2022-12-27T09:30:21.994Z,4.90
2022-12-27T09:31:24.772Z,5.00
2022-12-27T09:32:27.471Z,4.90
2022-12-27T09:33:29.818Z,5.00
2022-12-27T09:34:31.997Z,5.00
2022-12-27T09:35:38.466Z,5.00
2022-12-27T09:36:40.981Z,5.00
2022-12-27T09:37:42.662Z,4.90
2022-12-27T09:38:45.170Z,5.00
2022-12-27T09:39:46.748Z,5.00
2022-12-27T09:40:57.573Z,5.00
2022-12-27T09:42:47.660Z,5.00
2022-12-27T09:43:41.861Z,5.10
2022-12-27T09:45:00.269Z,5.10
2022-12-27T09:46:03.136Z,5.10
2022-12-27T09:47:12.896Z,5.10
2022-12-27T09:48:33.209Z,5.20
2022-12-27T09:49:39.838Z,5.10
2022-12-27T09:50:51.909Z,5.20
2022-12-27T09:52:02.312Z,5.20
2022-12-27T09:53:17.429Z,5.10
2022-12-27T09:54:25.474Z,5.10
2022-12-27T09:55:43.019Z,5.10
2022-12-27T09:57:18.171Z,5.10
2022-12-27T09:58:45.257Z,5.10
2022-12-27T09:59:52.575Z,5.10
2022-12-27T10:00:54.151Z,5.20
2022-12-27T10:01:55.823Z,5.20
2022-12-27T10:02:59.300Z,5.20
2022-12-27T10:04:01.886Z,5.20
2022-12-27T10:05:20.221Z,5.20
2022-12-27T10:06:44.900Z,5.10
2022-12-27T10:08:24.457Z,5.20
2022-12-27T10:10:01.298Z,5.20
2022-12-27T10:11:46.748Z,5.20
2022-12-27T10:12:57.240Z,5.20
2022-12-27T10:14:22.600Z,5.30
2022-12-27T10:15:39.618Z,5.30
2022-12-27T10:17:07.381Z,5.40
2022-12-27T10:18:15.948Z,5.30
2022-12-27T10:19:49.891Z,5.30
2022-12-27T10:21:24.924Z,5.30
2022-12-27T10:22:33.921Z,5.40
2022-12-27T10:23:38.604Z,5.40
2022-12-27T10:24:46.742Z,5.40
2022-12-27T10:25:53.521Z,5.40
2022-12-27T10:26:55.660Z,5.40
2022-12-27T10:28:28.931Z,5.40
2022-12-27T10:29:33.013Z,5.40
2022-12-27T10:30:34.646Z,5.40
2022-12-27T10:31:41.276Z,5.40
2022-12-27T10:32:43.820Z,5.40
2022-12-27T10:33:47.435Z,5.40
2022-12-27T10:34:57.775Z,5.40
2022-12-27T10:36:02.565Z,5.50
2022-12-27T10:37:04.140Z,5.50
2022-12-27T10:38:10.603Z,5.50
2022-12-27T10:39:33.933Z,5.50
2022-12-27T10:40:56.794Z,5.60
2022-12-27T10:42:22.485Z,5.60
2022-12-27T10:43:30.013Z,5.60
2022-12-27T10:44:31.580Z,5.70
2022-12-27T10:45:39.493Z,5.60
2022-12-27T10:46:44.487Z,5.70
2022-12-27T10:47:46.167Z,5.80
2022-12-27T10:49:27.152Z,5.80
2022-12-27T10:50:29.886Z,5.90
2022-12-27T10:51:40.506Z,6.00
2022-12-27T10:52:43.951Z,6.10
2022-12-27T10:53:45.483Z,6.10
2022-12-27T10:54:51.564Z,6.10
2022-12-27T10:56:07.190Z,6.10
2022-12-27T10:57:28.479Z,6.10
2022-12-27T10:58:39.794Z,6.10
2022-12-27T10:59:41.389Z,6.10
2022-12-27T11:00:53.481Z,6.10
2022-12-27T11:02:04.178Z,6.10
2022-12-27T11:03:18.288Z,6.00
2022-12-27T11:04:22.754Z,6.00
2022-12-27T11:05:30.031Z,6.00
2022-12-27T11:06:31.668Z,6.10
2022-12-27T11:07:34.731Z,6.10
2022-12-27T11:08:36.306Z,6.10
2022-12-27T11:09:50.350Z,6.20
2022-12-27T11:11:20.195Z,6.20
2022-12-27T11:12:29.153Z,6.20
2022-12-27T11:13:30.791Z,6.20
2022-12-27T11:14:32.538Z,6.20
2022-12-27T11:15:40.335Z,6.20
2022-12-27T11:16:42.466Z,6.10
2022-12-27T11:17:57.123Z,6.10
2022-12-27T11:19:00.404Z,6.10
2022-12-27T11:20:20.252Z,6.10
2022-12-27T11:21:27.727Z,6.10
2022-12-27T11:22:29.672Z,6.10
2022-12-27T11:23:41.120Z,6.10
2022-12-27T11:24:50.937Z,6.20
2022-12-27T11:25:58.390Z,6.20
2022-12-27T11:27:00.305Z,6.20
2022-12-27T11:28:17.740Z,6.20
2022-12-27T11:29:22.674Z,6.20
2022-12-27T11:30:29.780Z,6.30
2022-12-27T11:31:46.387Z,6.20
2022-12-27T11:32:48.081Z,6.30
2022-12-27T11:33:52.820Z,6.20
2022-12-27T11:34:56.659Z,6.20
2022-12-27T11:36:00.652Z,6.20
2022-12-27T11:37:15.266Z,6.20
2022-12-27T11:38:23.483Z,6.30
2022-12-27T11:39:51.150Z,6.20
2022-12-27T11:41:11.327Z,6.20
2022-12-27T11:42:42.904Z,6.20
2022-12-27T11:43:58.312Z,6.30
2022-12-27T11:45:22.300Z,6.30
2022-12-27T11:46:59.072Z,6.30
2022-12-27T11:48:11.318Z,6.30
2022-12-27T11:49:20.279Z,6.40
2022-12-27T11:50:28.052Z,6.40
2022-12-27T11:51:48.214Z,6.40
2022-12-27T11:53:31.602Z,6.40
2022-12-27T11:55:20.622Z,6.40
2022-12-27T11:56:36.801Z,6.40
2022-12-27T11:58:23.062Z,6.50
2022-12-27T11:59:33.624Z,6.60
2022-12-27T12:01:02.050Z,6.80
2022-12-27T12:02:44.258Z,7.20
2022-12-27T12:04:00.265Z,7.70
2022-12-27T12:05:21.495Z,7.80
2022-12-27T12:06:44.031Z,8.00
2022-12-27T12:08:21.316Z,8.20
2022-12-27T12:10:01.733Z,8.70
2022-12-27T12:11:18.878Z,9.20
2022-12-27T12:12:26.333Z,9.40
2022-12-27T12:14:05.649Z,9.50
2022-12-27T12:15:30.557Z,9.60
2022-12-27T12:16:58.431Z,9.70
2022-12-27T12:18:41.858Z,9.90
2022-12-27T12:20:08.477Z,9.80
2022-12-27T12:21:26.597Z,9.60
2022-12-27T12:22:34.802Z,9.80
2022-12-27T12:23:59.822Z,9.80
2022-12-27T12:25:29.098Z,9.90
2022-12-27T12:26:55.571Z,9.80
2022-12-27T12:28:55.777Z,9.60
2022-12-27T12:30:11.962Z,9.20
2022-12-27T12:31:20.043Z,8.80
2022-12-27T12:32:30.682Z,8.60
2022-12-27T12:33:54.360Z,8.40
2022-12-27T12:35:20.471Z,8.20
2022-12-27T12:36:46.605Z,8.10
2022-12-27T12:38:20.183Z,7.90
2022-12-27T12:40:07.502Z,7.70
2022-12-27T12:41:42.929Z,7.60
2022-12-27T12:43:22.046Z,7.50
2022-12-27T12:44:52.503Z,7.40
2022-12-27T12:46:23.400Z,7.30
2022-12-27T12:47:49.519Z,7.20
2022-12-27T12:49:11.545Z,7.20
2022-12-27T12:50:44.116Z,7.20
2022-12-27T12:52:15.555Z,7.20
2022-12-27T12:53:32.977Z,7.20
2022-12-27T12:54:47.348Z,7.20
2022-12-27T12:56:08.316Z,7.20
2022-12-27T12:57:23.704Z,7.20
2022-12-27T12:58:52.675Z,7.20
2022-12-27T13:00:42.674Z,7.20
2022-12-27T13:02:06.031Z,7.20
2022-12-27T13:03:17.069Z,7.30
2022-12-27T13:04:30.847Z,7.30
2022-12-27T13:06:00.831Z,7.30
2022-12-27T13:07:30.404Z,7.40
2022-12-27T13:08:55.423Z,7.40
2022-12-27T13:10:30.896Z,7.40
2022-12-27T13:12:01.811Z,7.40
2022-12-27T13:13:10.043Z,7.40
2022-12-27T13:14:55.172Z,7.30
2022-12-27T13:16:08.659Z,7.30
2022-12-27T13:17:35.885Z,7.30
2022-12-27T13:19:00.930Z,7.30
2022-12-27T13:20:17.861Z,7.20
2022-12-27T13:21:56.780Z,7.30
2022-12-27T13:23:26.841Z,7.30
2022-12-27T13:24:50.118Z,7.30
2022-12-27T13:26:01.081Z,7.30
2022-12-27T13:27:31.062Z,7.20
2022-12-27T13:28:45.529Z,7.30
2022-12-27T13:30:13.300Z,7.30
2022-12-27T13:31:52.289Z,7.30
2022-12-27T13:33:20.947Z,7.30
2022-12-27T13:34:43.959Z,7.40
2022-12-27T13:36:04.842Z,7.40
2022-12-27T13:37:35.582Z,7.40
2022-12-27T13:39:19.668Z,7.50
2022-12-27T13:40:34.094Z,7.50
2022-12-27T13:42:06.694Z,7.60
2022-12-27T13:43:18.811Z,7.60
2022-12-27T13:44:55.462Z,7.60
2022-12-27T13:46:02.961Z,7.60
2022-12-27T13:47:20.825Z,7.60
2022-12-27T13:48:43.704Z,7.50
2022-12-27T13:50:03.518Z,7.50
2022-12-27T13:51:37.060Z,7.40
2022-12-27T13:52:53.279Z,7.40
2022-12-27T13:54:31.498Z,7.40
2022-12-27T13:55:50.458Z,7.30
2022-12-27T13:57:04.607Z,7.30
2022-12-27T13:58:48.130Z,7.30
2022-12-27T13:59:52.841Z,7.30
2022-12-27T14:01:05.976Z,7.30
2022-12-27T14:02:26.113Z,7.30
2022-12-27T14:03:37.435Z,7.30
2022-12-27T14:05:02.400Z,7.30
2022-12-27T14:06:07.714Z,7.20
2022-12-27T14:07:32.386Z,7.30
2022-12-27T14:08:53.420Z,7.30
2022-12-27T14:10:33.362Z,7.20
2022-12-27T14:12:03.143Z,7.20
2022-12-27T14:13:12.666Z,7.20
2022-12-27T14:14:18.203Z,7.20
2022-12-27T14:15:33.087Z,7.20
2022-12-27T14:16:59.076Z,7.20
2022-12-27T14:18:19.375Z,7.20
2022-12-27T14:19:32.790Z,7.20
2022-12-27T14:21:09.758Z,7.20
2022-12-27T14:22:30.453Z,7.20
2022-12-27T14:24:22.889Z,7.20
2022-12-27T14:25:43.778Z,7.20
2022-12-27T14:26:54.436Z,7.20
2022-12-27T14:28:18.333Z,7.20
2022-12-27T14:29:57.737Z,7.10
2022-12-27T14:31:27.306Z,7.10
2022-12-27T14:32:48.144Z,7.10
2022-12-27T14:34:16.427Z,7.10
2022-12-27T14:35:56.037Z,7.00
2022-12-27T14:37:22.664Z,7.00
2022-12-27T14:38:35.680Z,6.90
2022-12-27T14:39:58.024Z,6.90
2022-12-27T14:41:16.464Z,6.90
2022-12-27T14:42:37.185Z,6.80
2022-12-27T14:44:23.441Z,6.80
2022-12-27T14:47:35.232Z,6.90
2022-12-27T14:49:26.043Z,6.80
2022-12-27T14:50:55.530Z,6.80
2022-12-27T14:52:12.622Z,6.80
2022-12-27T14:53:57.087Z,6.80
2022-12-27T14:55:32.913Z,6.70
2022-12-27T14:57:03.359Z,6.70
2022-12-27T14:58:24.660Z,6.70
2022-12-27T14:59:53.757Z,6.70
2022-12-27T15:01:03.585Z,6.70
2022-12-27T15:02:39.995Z,6.70
2022-12-27T15:03:54.671Z,6.70
2022-12-27T15:05:22.449Z,6.70
2022-12-27T15:06:38.441Z,6.70
2022-12-27T15:07:58.305Z,6.70
2022-12-27T15:09:09.382Z,6.70
2022-12-27T15:10:42.560Z,6.70
2022-12-27T15:12:05.501Z,6.70
2022-12-27T15:13:44.883Z,6.70
2022-12-27T15:14:54.064Z,6.70
2022-12-27T15:16:39.335Z,6.60
2022-12-27T15:17:41.293Z,6.60
2022-12-27T15:19:16.424Z,6.60
2022-12-27T15:20:25.734Z,6.60
2022-12-27T15:21:27.393Z,6.50
2022-12-27T15:22:52.395Z,6.50
2022-12-27T15:24:00.997Z,6.50
2022-12-27T15:25:34.121Z,6.50
2022-12-27T15:26:56.550Z,6.50
2022-12-27T15:28:19.037Z,6.50
2022-12-27T15:29:42.999Z,6.50
2022-12-27T15:31:05.865Z,6.40
2022-12-27T15:32:07.695Z,6.40
2022-12-27T15:33:28.283Z,6.40
2022-12-27T15:34:49.596Z,6.40
2022-12-27T15:36:36.623Z,6.40
2022-12-27T15:37:47.255Z,6.40
2022-12-27T15:38:54.776Z,6.30
2022-12-27T15:39:57.929Z,6.30
2022-12-27T15:41:08.586Z,6.40
2022-12-27T15:42:37.962Z,6.30
2022-12-27T15:44:08.931Z,6.40
2022-12-27T15:45:27.587Z,6.40
2022-12-27T15:47:04.166Z,6.40
2022-12-27T15:48:30.728Z,6.40
2022-12-27T15:50:26.972Z,6.40
2022-12-27T15:51:50.841Z,6.40
2022-12-27T15:53:01.937Z,6.40
2022-12-27T15:54:15.079Z,6.50
2022-12-27T15:55:37.982Z,6.40